sensor_id;sensor_type;location;lat;lon;timestamp;pressure;altitude;pressure_sealevel;temperature;humidity
56334;BME280;42240;53.626;55.886;2023-05-14T00:00:45;77031.41;;;-145.10;100.00
56334;BME280;42240;53.626;55.886;2023-05-14T00:02:20;77047.22;;;-145.10;100.00
56334;BME280;42240;53.626;55.886;2023-05-14T00:03:54;77033.38;;;-145.10;100.00
56334;BME280;42240;53.626;55.886;2023-05-14T00:05:28;77031.41;;;-145.10;100.00
56334;BME280;42240;53.626;55.886;2023-05-14T00:07:01;77047.22;;;-145.10;100.00
56334;BME280;42240;53.626;55.886;2023-05-14T00:08:35;77059.09;;;-145.10;100.00
56334;BME280;42240;53.626;55.886;2023-05-14T00:10:09;77047.22;;;-145.10;100.00
56334;BME280;42240;53.626;55.886;2023-05-14T00:11:43;77067.00;;;-145.10;100.00
56334;BME280;42240;53.626;55.886;2023-05-14T00:13:16;77082.81;;;-145.10;100.00
56334;BME280;42240;53.626;55.886;2023-05-14T00:14:49;77096.66;;;-145.10;100.00
56334;BME280;42240;53.626;55.886;2023-05-14T00:16:23;77086.78;;;-145.10;100.00
56334;BME280;42240;53.626;55.886;2023-05-14T00:17:56;77102.59;;;-145.10;100.00
56334;BME280;42240;53.626;55.886;2023-05-14T00:19:30;77112.47;;;-145.10;100.00
56334;BME280;42240;53.626;55.886;2023-05-14T00:21:03;77126.31;;;-145.10;100.00
56334;BME280;42240;53.626;55.886;2023-05-14T00:22:38;77142.16;;;-145.10;100.00
56334;BME280;42240;53.626;55.886;2023-05-14T00:24:12;77120.41;;;-145.10;100.00
56334;BME280;42240;53.626;55.886;2023-05-14T00:25:45;77098.63;;;-145.10;100.00
56334;BME280;42240;53.626;55.886;2023-05-14T00:27:19;77080.84;;;-145.10;100.00
56334;BME280;42240;53.626;55.886;2023-05-14T00:28:53;77080.84;;;-145.10;100.00
56334;BME280;42240;53.626;55.886;2023-05-14T00:30:26;77074.91;;;-145.10;100.00
56334;BME280;42240;53.626;55.886;2023-05-14T00:32:00;77063.03;;;-145.10;100.00
56334;BME280;42240;53.626;55.886;2023-05-14T00:33:33;77065.03;;;-145.10;100.00
56334;BME280;42240;53.626;55.886;2023-05-14T00:35:07;77082.81;;;-145.10;100.00
56334;BME280;42240;53.626;55.886;2023-05-14T00:36:41;77096.66;;;-145.10;100.00
56334;BME280;42240;53.626;55.886;2023-05-14T00:38:14;77104.56;;;-145.10;100.00
56334;BME280;42240;53.626;55.886;2023-05-14T00:39:51;77098.63;;;-145.10;100.00
56334;BME280;42240;53.626;55.886;2023-05-14T00:41:24;77090.72;;;-145.10;100.00
56334;BME280;42240;53.626;55.886;2023-05-14T00:42:58;77088.75;;;-145.10;100.00
56334;BME280;42240;53.626;55.886;2023-05-14T00:44:32;77082.81;;;-145.10;100.00
56334;BME280;42240;53.626;55.886;2023-05-14T00:46:06;77094.69;;;-145.10;100.00
56334;BME280;42240;53.626;55.886;2023-05-14T00:47:39;77082.81;;;-145.10;100.00
56334;BME280;42240;53.626;55.886;2023-05-14T00:49:13;77070.94;;;-145.10;100.00
56334;BME280;42240;53.626;55.886;2023-05-14T00:50:48;77078.88;;;-145.10;100.00
56334;BME280;42240;53.626;55.886;2023-05-14T00:52:23;77084.78;;;-145.10;100.00
56334;BME280;42240;53.626;55.886;2023-05-14T00:53:56;77102.59;;;-145.10;100.00
56334;BME280;42240;53.626;55.886;2023-05-14T00:55:30;77094.69;;;-145.10;100.00
56334;BME280;42240;53.626;55.886;2023-05-14T00:57:05;77090.72;;;-145.10;100.00
56334;BME280;42240;53.626;55.886;2023-05-14T00:58:42;77110.50;;;-145.10;100.00
56334;BME280;42240;53.626;55.886;2023-05-14T01:00:16;77106.56;;;-145.10;100.00
56334;BME280;42240;53.626;55.886;2023-05-14T01:01:49;77100.63;;;-145.10;100.00
56334;BME280;42240;53.626;55.886;2023-05-14T01:03:23;77086.78;;;-145.10;100.00
56334;BME280;42240;53.626;55.886;2023-05-14T01:04:57;77076.88;;;-145.10;100.00
56334;BME280;42240;53.626;55.886;2023-05-14T01:12:26;77053.16;;;-145.10;100.00
56334;BME280;42240;53.626;55.886;2023-05-14T01:14:27;77094.69;;;-145.10;100.00
56334;BME280;42240;53.626;55.886;2023-05-14T01:16:05;77055.13;;;-145.10;100.00
56334;BME280;42240;53.626;55.886;2023-05-14T01:17:49;77033.38;;;-145.10;100.00
56334;BME280;42240;53.626;55.886;2023-05-14T01:19:40;77021.50;;;-145.10;100.00
56334;BME280;42240;53.626;55.886;2023-05-14T01:23:06;77009.66;;;-145.10;100.00
56334;BME280;42240;53.626;55.886;2023-05-14T01:24:40;76981.97;;;-145.10;100.00
56334;BME280;42240;53.626;55.886;2023-05-14T01:26:14;76976.03;;;-145.10;100.00
56334;BME280;42240;53.626;55.886;2023-05-14T01:27:55;76966.13;;;-145.10;100.00
56334;BME280;42240;53.626;55.886;2023-05-14T01:29:32;76972.06;;;-145.10;100.00
56334;BME280;42240;53.626;55.886;2023-05-14T01:31:11;76979.97;;;-145.10;100.00
56334;BME280;42240;53.626;55.886;2023-05-14T01:32:52;76976.03;;;-145.10;100.00
56334;BME280;42240;53.626;55.886;2023-05-14T01:34:27;76950.31;;;-145.10;100.00
56334;BME280;42240;53.626;55.886;2023-05-14T01:36:03;76940.44;;;-145.10;100.00
56334;BME280;42240;53.626;55.886;2023-05-14T01:37:37;76964.16;;;-145.10;100.00
56334;BME280;42240;53.626;55.886;2023-05-14T01:39:17;76920.66;;;-145.10;100.00
56334;BME280;42240;53.626;55.886;2023-05-14T01:40:52;76920.66;;;-145.10;100.00
56334;BME280;42240;53.626;55.886;2023-05-14T01:42:27;76978.00;;;-145.10;100.00
56334;BME280;42240;53.626;55.886;2023-05-14T01:44:02;76916.69;;;-145.10;100.00
56334;BME280;42240;53.626;55.886;2023-05-14T01:45:35;76918.69;;;-145.10;100.00
56334;BME280;42240;53.626;55.886;2023-05-14T01:47:09;76934.50;;;-145.10;100.00
56334;BME280;42240;53.626;55.886;2023-05-14T01:48:42;76926.59;;;-145.10;100.00
56334;BME280;42240;53.626;55.886;2023-05-14T01:50:16;76944.38;;;-145.10;100.00
56334;BME280;42240;53.626;55.886;2023-05-14T01:51:50;76916.69;;;-145.10;100.00
56334;BME280;42240;53.626;55.886;2023-05-14T01:53:23;76891.00;;;-145.10;100.00
56334;BME280;42240;53.626;55.886;2023-05-14T01:54:57;76944.38;;;-145.10;100.00
56334;BME280;42240;53.626;55.886;2023-05-14T01:56:32;76930.53;;;-145.10;100.00
56334;BME280;42240;53.626;55.886;2023-05-14T01:58:05;76904.84;;;-145.10;100.00
56334;BME280;42240;53.626;55.886;2023-05-14T01:59:39;76891.00;;;-145.10;100.00
56334;BME280;42240;53.626;55.886;2023-05-14T02:01:12;76881.09;;;-145.10;100.00
56334;BME280;42240;53.626;55.886;2023-05-14T02:02:46;76960.22;;;-145.10;100.00
56334;BME280;42240;53.626;55.886;2023-05-14T02:04:21;76983.94;;;-145.10;100.00
56334;BME280;42240;53.626;55.886;2023-05-14T02:05:54;76948.34;;;-145.10;100.00
56334;BME280;42240;53.626;55.886;2023-05-14T02:07:28;76952.28;;;-145.10;100.00
56334;BME280;42240;53.626;55.886;2023-05-14T02:09:03;76928.56;;;-145.10;100.00
56334;BME280;42240;53.626;55.886;2023-05-14T02:10:37;76898.91;;;-145.10;100.00
56334;BME280;42240;53.626;55.886;2023-05-14T02:12:10;76885.06;;;-145.10;100.00
56334;BME280;42240;53.626;55.886;2023-05-14T02:13:44;76861.34;;;-145.10;100.00
56334;BME280;42240;53.626;55.886;2023-05-14T02:15:17;76912.75;;;-145.10;100.00
56334;BME280;42240;53.626;55.886;2023-05-14T02:16:51;76885.06;;;-145.10;100.00
56334;BME280;42240;53.626;55.886;2023-05-14T02:18:24;76857.38;;;-145.10;100.00
56334;BME280;42240;53.626;55.886;2023-05-14T02:20:01;76865.28;;;-145.10;100.00
56334;BME280;42240;53.626;55.886;2023-05-14T02:21:46;76885.06;;;-145.10;100.00
56334;BME280;42240;53.626;55.886;2023-05-14T02:23:20;76892.97;;;-145.10;100.00
56334;BME280;42240;53.626;55.886;2023-05-14T02:25:09;76889.00;;;-145.10;100.00
56334;BME280;42240;53.626;55.886;2023-05-14T02:26:43;76845.50;;;-145.10;100.00
56334;BME280;42240;53.626;55.886;2023-05-14T02:28:16;76802.00;;;-145.10;100.00
56334;BME280;42240;53.626;55.886;2023-05-14T02:29:50;76798.03;;;-145.10;100.00
56334;BME280;42240;53.626;55.886;2023-05-14T02:31:24;76766.41;;;-145.10;100.00
56334;BME280;42240;53.626;55.886;2023-05-14T02:32:57;76758.50;;;-145.10;100.00
56334;BME280;42240;53.626;55.886;2023-05-14T02:34:31;76742.69;;;-145.10;100.00
56334;BME280;42240;53.626;55.886;2023-05-14T02:36:06;76746.63;;;-145.10;100.00
56334;BME280;42240;53.626;55.886;2023-05-14T02:37:39;76766.41;;;-145.10;100.00
56334;BME280;42240;53.626;55.886;2023-05-14T02:39:13;76742.69;;;-145.10;100.00
56334;BME280;42240;53.626;55.886;2023-05-14T02:40:50;76734.78;;;-145.10;100.00
56334;BME280;42240;53.626;55.886;2023-05-14T02:42:24;76817.81;;;-145.10;100.00
56334;BME280;42240;53.626;55.886;2023-05-14T02:43:57;76792.13;;;-145.10;100.00
56334;BME280;42240;53.626;55.886;2023-05-14T02:45:31;76805.97;;;-145.10;100.00
56334;BME280;42240;53.626;55.886;2023-05-14T02:47:05;76794.09;;;-145.10;100.00
56334;BME280;42240;53.626;55.886;2023-05-14T02:48:38;76817.81;;;-145.10;100.00
56334;BME280;42240;53.626;55.886;2023-05-14T02:50:11;76778.28;;;-145.10;100.00
56334;BME280;42240;53.626;55.886;2023-05-14T02:51:45;76742.69;;;-145.10;100.00
56334;BME280;42240;53.626;55.886;2023-05-14T02:53:19;76716.97;;;-145.10;100.00
56334;BME280;42240;53.626;55.886;2023-05-14T02:54:52;76716.97;;;-145.10;100.00
56334;BME280;42240;53.626;55.886;2023-05-14T02:56:26;76713.03;;;-145.10;100.00
56334;BME280;42240;53.626;55.886;2023-05-14T02:57:59;76675.44;;;-145.10;100.00
56334;BME280;42240;53.626;55.886;2023-05-14T02:59:32;76643.81;;;-145.10;100.00
56334;BME280;42240;53.626;55.886;2023-05-14T03:01:06;76612.16;;;-145.10;100.00
56334;BME280;42240;53.626;55.886;2023-05-14T03:02:40;76584.47;;;-145.10;100.00
56334;BME280;42240;53.626;55.886;2023-05-14T03:04:17;76570.63;;;-145.10;100.00
56334;BME280;42240;53.626;55.886;2023-05-14T03:05:50;76564.72;;;-145.10;100.00
56334;BME280;42240;53.626;55.886;2023-05-14T03:07:24;76556.81;;;-145.10;100.00
56334;BME280;42240;53.626;55.886;2023-05-14T03:08:57;76542.97;;;-145.10;100.00
56334;BME280;42240;53.626;55.886;2023-05-14T03:10:32;76542.97;;;-145.10;100.00
56334;BME280;42240;53.626;55.886;2023-05-14T03:12:06;76564.72;;;-145.10;100.00
56334;BME280;42240;53.626;55.886;2023-05-14T03:13:40;76554.81;;;-145.10;100.00
56334;BME280;42240;53.626;55.886;2023-05-14T03:15:14;76537.03;;;-145.10;100.00
56334;BME280;42240;53.626;55.886;2023-05-14T03:16:47;76604.25;;;-145.10;100.00
56334;BME280;42240;53.626;55.886;2023-05-14T03:18:21;76600.31;;;-145.10;100.00
56334;BME280;42240;53.626;55.886;2023-05-14T03:19:54;76550.88;;;-145.10;100.00
56334;BME280;42240;53.626;55.886;2023-05-14T03:21:28;76533.06;;;-145.10;100.00
56334;BME280;42240;53.626;55.886;2023-05-14T03:23:01;76477.72;;;-145.10;100.00
56334;BME280;42240;53.626;55.886;2023-05-14T03:24:37;76457.94;;;-145.10;100.00
56334;BME280;42240;53.626;55.886;2023-05-14T03:26:12;76414.44;;;-145.10;100.00
56334;BME280;42240;53.626;55.886;2023-05-14T03:27:46;76452.00;;;-145.10;100.00
56334;BME280;42240;53.626;55.886;2023-05-14T03:29:19;76465.84;;;-145.10;100.00
56334;BME280;42240;53.626;55.886;2023-05-14T03:30:53;76455.97;;;-145.10;100.00
56334;BME280;42240;53.626;55.886;2023-05-14T03:32:27;76477.72;;;-145.10;100.00
56334;BME280;42240;53.626;55.886;2023-05-14T03:34:01;76469.78;;;-145.10;100.00
56334;BME280;42240;53.626;55.886;2023-05-14T03:35:34;76465.84;;;-145.10;100.00
56334;BME280;42240;53.626;55.886;2023-05-14T03:37:08;76465.84;;;-145.10;100.00
56334;BME280;42240;53.626;55.886;2023-05-14T03:38:41;76467.81;;;-145.10;100.00
56334;BME280;42240;53.626;55.886;2023-05-14T03:40:15;76440.13;;;-145.10;100.00
56334;BME280;42240;53.626;55.886;2023-05-14T03:41:49;76434.19;;;-145.10;100.00
56334;BME280;42240;53.626;55.886;2023-05-14T03:43:22;76489.56;;;-145.10;100.00
56334;BME280;42240;53.626;55.886;2023-05-14T03:44:56;76548.88;;;-145.10;100.00
56334;BME280;42240;53.626;55.886;2023-05-14T03:46:30;76513.28;;;-145.10;100.00
56334;BME280;42240;53.626;55.886;2023-05-14T03:48:04;76477.72;;;-145.10;100.00
56334;BME280;42240;53.626;55.886;2023-05-14T03:49:38;76495.50;;;-145.10;100.00
56334;BME280;42240;53.626;55.886;2023-05-14T03:51:14;76515.28;;;-145.10;100.00
56334;BME280;42240;53.626;55.886;2023-05-14T03:52:47;76505.38;;;-145.10;100.00
56334;BME280;42240;53.626;55.886;2023-05-14T03:54:20;76497.47;;;-145.10;100.00
56334;BME280;42240;53.626;55.886;2023-05-14T03:55:54;76485.63;;;-145.10;100.00
56334;BME280;42240;53.626;55.886;2023-05-14T03:57:27;76473.75;;;-145.10;100.00
56334;BME280;42240;53.626;55.886;2023-05-14T03:59:01;76459.91;;;-145.10;100.00
56334;BME280;42240;53.626;55.886;2023-05-14T04:00:36;76461.88;;;-145.10;100.00
56334;BME280;42240;53.626;55.886;2023-05-14T04:02:09;76428.28;;;-145.10;100.00
56334;BME280;42240;53.626;55.886;2023-05-14T04:03:43;76422.34;;;-145.10;100.00
56334;BME280;42240;53.626;55.886;2023-05-14T04:05:18;76402.56;;;-145.10;100.00
56334;BME280;42240;53.626;55.886;2023-05-14T04:06:52;76390.69;;;-145.10;100.00
56334;BME280;42240;53.626;55.886;2023-05-14T04:08:26;76372.91;;;-145.10;100.00
56334;BME280;42240;53.626;55.886;2023-05-14T04:10:02;76366.97;;;-145.10;100.00
56334;BME280;42240;53.626;55.886;2023-05-14T04:11:39;76400.59;;;-145.10;100.00
56334;BME280;42240;53.626;55.886;2023-05-14T04:13:13;76384.78;;;-145.10;100.00
56334;BME280;42240;53.626;55.886;2023-05-14T04:14:47;76414.44;;;-145.10;100.00
56334;BME280;42240;53.626;55.886;2023-05-14T04:16:20;76438.16;;;-145.10;100.00
56334;BME280;42240;53.626;55.886;2023-05-14T04:17:54;76414.44;;;-145.10;100.00
56334;BME280;42240;53.626;55.886;2023-05-14T04:19:28;76406.53;;;-145.10;100.00
56334;BME280;42240;53.626;55.886;2023-05-14T04:21:02;76366.97;;;-145.10;100.00
56334;BME280;42240;53.626;55.886;2023-05-14T04:22:35;76357.09;;;-145.10;100.00
56334;BME280;42240;53.626;55.886;2023-05-14T04:24:09;76363.03;;;-145.10;100.00
56334;BME280;42240;53.626;55.886;2023-05-14T04:25:43;76378.84;;;-145.10;100.00
56334;BME280;42240;53.626;55.886;2023-05-14T04:27:19;76384.78;;;-145.10;100.00
56334;BME280;42240;53.626;55.886;2023-05-14T04:28:53;76366.97;;;-145.10;100.00
56334;BME280;42240;53.626;55.886;2023-05-14T04:30:26;76365.00;;;-145.10;100.00
56334;BME280;42240;53.626;55.886;2023-05-14T04:32:00;76295.78;;;-145.10;100.00
56334;BME280;42240;53.626;55.886;2023-05-14T04:33:34;76299.75;;;-145.10;100.00
56334;BME280;42240;53.626;55.886;2023-05-14T04:35:08;76264.16;;;-145.10;100.00
56334;BME280;42240;53.626;55.886;2023-05-14T04:36:45;76232.53;;;-145.10;100.00
56334;BME280;42240;53.626;55.886;2023-05-14T04:38:18;76220.66;;;-145.10;100.00
56334;BME280;42240;53.626;55.886;2023-05-14T04:39:52;76196.94;;;-145.10;100.00
56334;BME280;42240;53.626;55.886;2023-05-14T04:41:26;76185.06;;;-145.10;100.00
56334;BME280;42240;53.626;55.886;2023-05-14T04:42:59;76092.16;;;-145.10;100.00
56334;BME280;42240;53.626;55.886;2023-05-14T04:44:37;76137.63;;;-145.10;100.00
56334;BME280;42240;53.626;55.886;2023-05-14T04:46:10;76088.19;;;-145.10;100.00
56334;BME280;42240;53.626;55.886;2023-05-14T04:47:45;76064.47;;;-145.10;100.00
56334;BME280;42240;53.626;55.886;2023-05-14T04:49:18;75945.84;;;-145.10;100.00
56334;BME280;42240;53.626;55.886;2023-05-14T04:50:53;75734.28;;;-145.10;100.00
56334;BME280;42240;53.626;55.886;2023-05-14T04:52:26;75623.59;;;-145.10;100.00
56334;BME280;42240;53.626;55.886;2023-05-14T04:54:00;75593.94;;;-145.10;100.00
56334;BME280;42240;53.626;55.886;2023-05-14T04:55:34;75463.47;;;-145.10;100.00
56334;BME280;42240;53.626;55.886;2023-05-14T04:57:07;75406.13;;;-145.10;100.00
56334;BME280;42240;53.626;55.886;2023-05-14T04:58:41;75338.91;;;-145.10;100.00
56334;BME280;42240;53.626;55.886;2023-05-14T05:00:15;75319.16;;;-145.10;100.00
56334;BME280;42240;53.626;55.886;2023-05-14T05:01:49;75358.69;;;-145.10;100.00
56334;BME280;42240;53.626;55.886;2023-05-14T05:03:24;75398.22;;;-145.10;100.00
56334;BME280;42240;53.626;55.886;2023-05-14T05:04:58;75384.38;;;-145.10;100.00
56334;BME280;42240;53.626;55.886;2023-05-14T05:06:32;75362.63;;;-145.10;100.00
56334;BME280;42240;53.626;55.886;2023-05-14T05:08:05;75311.25;;;-145.10;100.00
56334;BME280;42240;53.626;55.886;2023-05-14T05:09:39;75334.97;;;-145.10;99.83
56334;BME280;42240;53.626;55.886;2023-05-14T05:11:13;75333.00;;;-145.10;100.00
56334;BME280;42240;53.626;55.886;2023-05-14T05:12:46;75251.94;;;-145.10;96.55
56334;BME280;42240;53.626;55.886;2023-05-14T05:14:20;75139.28;;;-145.10;95.87
56334;BME280;42240;53.626;55.886;2023-05-14T05:15:53;75093.81;;;-145.10;91.22
56334;BME280;42240;53.626;55.886;2023-05-14T05:17:28;75000.91;;;-145.10;87.03
56334;BME280;42240;53.626;55.886;2023-05-14T05:19:02;75093.81;;;-145.10;82.20
56334;BME280;42240;53.626;55.886;2023-05-14T05:20:36;75006.84;;;-145.10;83.83
56334;BME280;42240;53.626;55.886;2023-05-14T05:22:10;75087.88;;;-145.10;85.21
56334;BME280;42240;53.626;55.886;2023-05-14T05:23:43;75058.22;;;-145.10;86.31
56334;BME280;42240;53.626;55.886;2023-05-14T05:25:17;74993.00;;;-145.10;84.28
56334;BME280;42240;53.626;55.886;2023-05-14T05:26:50;74840.81;;;-145.10;85.63
56334;BME280;42240;53.626;55.886;2023-05-14T05:28:24;74941.59;;;-145.10;78.54
56334;BME280;42240;53.626;55.886;2023-05-14T05:29:59;74876.38;;;-145.10;78.23
56334;BME280;42240;53.626;55.886;2023-05-14T05:31:34;74872.44;;;-145.10;76.76
56334;BME280;42240;53.626;55.886;2023-05-14T05:33:08;74896.16;;;-145.10;78.17
56334;BME280;42240;53.626;55.886;2023-05-14T05:34:45;75026.59;;;-145.10;79.65
56334;BME280;42240;53.626;55.886;2023-05-14T05:36:19;75101.72;;;-145.10;81.04
56334;BME280;42240;53.626;55.886;2023-05-14T05:37:52;74994.97;;;-145.10;83.72
56334;BME280;42240;53.626;55.886;2023-05-14T05:39:26;74975.22;;;-145.10;81.03
56334;BME280;42240;53.626;55.886;2023-05-14T05:40:59;74856.63;;;-145.10;80.87
56334;BME280;42240;53.626;55.886;2023-05-14T05:42:33;74769.66;;;-145.10;78.54
56334;BME280;42240;53.626;55.886;2023-05-14T05:44:06;74797.31;;;-145.10;72.43
56334;BME280;42240;53.626;55.886;2023-05-14T05:45:40;74753.84;;;-145.10;70.21
56334;BME280;42240;53.626;55.886;2023-05-14T05:47:14;74625.38;;;-145.10;69.15
56334;BME280;42240;53.626;55.886;2023-05-14T05:48:48;74781.50;;;-145.10;70.32
56334;BME280;42240;53.626;55.886;2023-05-14T05:50:21;74765.69;;;-145.10;67.40
56334;BME280;42240;53.626;55.886;2023-05-14T05:51:55;74702.44;;;-145.10;72.24
56334;BME280;42240;53.626;55.886;2023-05-14T05:53:29;74635.25;;;-145.10;69.50
56334;BME280;42240;53.626;55.886;2023-05-14T05:55:03;74684.66;;;-145.10;65.75
56334;BME280;42240;53.626;55.886;2023-05-14T05:56:36;74684.66;;;-145.10;64.34
56334;BME280;42240;53.626;55.886;2023-05-14T05:58:09;74726.16;;;-145.10;62.80
56334;BME280;42240;53.626;55.886;2023-05-14T05:59:42;74741.97;;;-145.10;66.49
56334;BME280;42240;53.626;55.886;2023-05-14T06:01:16;74773.59;;;-145.10;69.99
56334;BME280;42240;53.626;55.886;2023-05-14T06:02:49;74767.66;;;-145.10;65.60
56334;BME280;42240;53.626;55.886;2023-05-14T06:04:23;74722.22;;;-145.10;69.95
56334;BME280;42240;53.626;55.886;2023-05-14T06:05:57;74641.19;;;-145.10;68.52
56334;BME280;42240;53.626;55.886;2023-05-14T06:07:31;74678.72;;;-145.10;63.61
56334;BME280;42240;53.626;55.886;2023-05-14T06:09:04;74678.72;;;-145.10;60.77
56334;BME280;42240;53.626;55.886;2023-05-14T06:10:39;74741.97;;;-145.10;65.41
56334;BME280;42240;53.626;55.886;2023-05-14T06:12:12;74773.59;;;-145.10;63.17
56334;BME280;42240;53.626;55.886;2023-05-14T06:13:46;74714.31;;;-145.10;63.00
56334;BME280;42240;53.626;55.886;2023-05-14T06:15:19;74791.38;;;-145.10;64.96
56334;BME280;42240;53.626;55.886;2023-05-14T06:16:53;74670.81;;;-145.10;67.34
56334;BME280;42240;53.626;55.886;2023-05-14T06:18:27;74741.97;;;-145.10;63.89
56334;BME280;42240;53.626;55.886;2023-05-14T06:20:01;74828.94;;;-145.10;61.80
56334;BME280;42240;53.626;55.886;2023-05-14T06:21:34;74892.19;;;-145.10;63.82
56334;BME280;42240;53.626;55.886;2023-05-14T06:23:08;74955.44;;;-145.10;69.41
56334;BME280;42240;53.626;55.886;2023-05-14T06:24:43;74825.00;;;-145.10;72.71
56334;BME280;42240;53.626;55.886;2023-05-14T06:26:17;74840.81;;;-145.10;69.67
56334;BME280;42240;53.626;55.886;2023-05-14T06:27:51;74821.03;;;-145.10;66.94
56334;BME280;42240;53.626;55.886;2023-05-14T06:29:25;74769.66;;;-145.10;68.13
56334;BME280;42240;53.626;55.886;2023-05-14T06:30:58;74817.09;;;-145.10;64.33
56334;BME280;42240;53.626;55.886;2023-05-14T06:32:32;74876.38;;;-145.10;63.84
56334;BME280;42240;53.626;55.886;2023-05-14T06:34:06;74969.28;;;-145.10;67.50
56334;BME280;42240;53.626;55.886;2023-05-14T06:35:40;74826.97;;;-145.10;67.07
56334;BME280;42240;53.626;55.886;2023-05-14T06:37:13;74868.47;;;-145.10;64.94
56334;BME280;42240;53.626;55.886;2023-05-14T06:38:47;74872.44;;;-145.10;70.42
56334;BME280;42240;53.626;55.886;2023-05-14T06:40:21;74967.31;;;-145.10;71.01
56334;BME280;42240;53.626;55.886;2023-05-14T06:41:55;74963.34;;;-145.10;71.05
56334;BME280;42240;53.626;55.886;2023-05-14T06:43:29;74826.97;;;-145.10;72.27
56334;BME280;42240;53.626;55.886;2023-05-14T06:45:04;74826.97;;;-145.10;72.14
56334;BME280;42240;53.626;55.886;2023-05-14T06:46:38;74747.91;;;-145.10;68.56
56334;BME280;42240;53.626;55.886;2023-05-14T06:48:14;74700.47;;;-145.10;64.50
56334;BME280;42240;53.626;55.886;2023-05-14T06:49:47;74611.53;;;-145.10;66.77
56334;BME280;42240;53.626;55.886;2023-05-14T06:51:21;74597.69;;;-145.10;62.73
56334;BME280;42240;53.626;55.886;2023-05-14T06:52:55;74858.59;;;-145.10;62.97
56334;BME280;42240;53.626;55.886;2023-05-14T06:54:28;74777.56;;;-145.10;63.76
56334;BME280;42240;53.626;55.886;2023-05-14T06:56:03;74694.53;;;-145.10;64.36
56334;BME280;42240;53.626;55.886;2023-05-14T06:57:37;74686.63;;;-145.10;57.99
56334;BME280;42240;53.626;55.886;2023-05-14T06:59:12;74736.06;;;-145.10;50.59
56334;BME280;42240;53.626;55.886;2023-05-14T07:00:46;74700.47;;;-145.10;49.30
56334;BME280;42240;53.626;55.886;2023-05-14T07:02:22;74722.22;;;-145.10;51.59
56334;BME280;42240;53.626;55.886;2023-05-14T07:03:56;74658.97;;;-145.10;52.23
56334;BME280;42240;53.626;55.886;2023-05-14T07:05:30;74635.25;;;-145.10;49.31
56334;BME280;42240;53.626;55.886;2023-05-14T07:07:04;74623.38;;;-145.10;44.38
56334;BME280;42240;53.626;55.886;2023-05-14T07:08:38;74591.78;;;-145.10;44.97
56334;BME280;42240;53.626;55.886;2023-05-14T07:10:12;74548.28;;;-145.10;44.74
56334;BME280;42240;53.626;55.886;2023-05-14T07:11:46;74560.16;;;-145.10;42.12
56334;BME280;42240;53.626;55.886;2023-05-14T07:13:20;74619.44;;;-145.10;40.99
56334;BME280;42240;53.626;55.886;2023-05-14T07:14:54;74633.28;;;-145.10;41.76
56334;BME280;42240;53.626;55.886;2023-05-14T07:16:29;74605.59;;;-145.10;41.43
56334;BME280;42240;53.626;55.886;2023-05-14T07:18:03;74548.28;;;-145.10;42.46
56334;BME280;42240;53.626;55.886;2023-05-14T07:19:37;74502.84;;;-145.10;41.85
56334;BME280;42240;53.626;55.886;2023-05-14T07:21:10;74506.78;;;-145.10;40.07
56334;BME280;42240;53.626;55.886;2023-05-14T07:22:44;74496.91;;;-145.10;40.49
56334;BME280;42240;53.626;55.886;2023-05-14T07:24:18;74532.47;;;-145.10;41.84
56334;BME280;42240;53.626;55.886;2023-05-14T07:25:51;74485.03;;;-145.10;41.99
56334;BME280;42240;53.626;55.886;2023-05-14T07:27:28;74572.00;;;-145.10;45.45
56334;BME280;42240;53.626;55.886;2023-05-14T07:29:02;74502.84;;;-145.10;45.79
56334;BME280;42240;53.626;55.886;2023-05-14T07:30:35;74532.47;;;-145.10;46.51
56334;BME280;42240;53.626;55.886;2023-05-14T07:32:09;74481.09;;;-145.10;43.92
56334;BME280;42240;53.626;55.886;2023-05-14T07:33:46;74431.69;;;-145.10;42.08
56334;BME280;42240;53.626;55.886;2023-05-14T07:35:20;74461.31;;;-145.10;41.38
56334;BME280;42240;53.626;55.886;2023-05-14T07:36:54;74465.28;;;-145.10;41.56
56334;BME280;42240;53.626;55.886;2023-05-14T07:38:28;74489.00;;;-145.10;41.70
56334;BME280;42240;53.626;55.886;2023-05-14T07:40:01;74453.41;;;-145.10;42.12
56334;BME280;42240;53.626;55.886;2023-05-14T07:41:36;74536.44;;;-145.10;43.60
56334;BME280;42240;53.626;55.886;2023-05-14T07:43:10;74601.66;;;-145.10;42.88
56334;BME280;42240;53.626;55.886;2023-05-14T07:44:44;74647.09;;;-145.10;42.16
56334;BME280;42240;53.626;55.886;2023-05-14T07:46:17;74686.63;;;-145.10;42.39
56334;BME280;42240;53.626;55.886;2023-05-14T07:47:51;74825.00;;;-145.10;44.65
56334;BME280;42240;53.626;55.886;2023-05-14T07:49:25;74769.66;;;-145.10;47.43
56334;BME280;42240;53.626;55.886;2023-05-14T07:50:59;74718.25;;;-145.10;47.19
56334;BME280;42240;53.626;55.886;2023-05-14T07:52:33;74662.91;;;-145.10;46.99
56334;BME280;42240;53.626;55.886;2023-05-14T07:54:07;74639.19;;;-145.10;45.61
56334;BME280;42240;53.626;55.886;2023-05-14T07:55:41;74607.59;;;-145.10;41.74
56334;BME280;42240;53.626;55.886;2023-05-14T07:57:17;74631.28;;;-145.10;40.39
56334;BME280;42240;53.626;55.886;2023-05-14T07:58:51;74629.31;;;-145.10;41.28
56334;BME280;42240;53.626;55.886;2023-05-14T08:00:24;74579.91;;;-145.10;42.00
56334;BME280;42240;53.626;55.886;2023-05-14T08:01:58;74619.44;;;-145.10;41.02
56334;BME280;42240;53.626;55.886;2023-05-14T08:03:32;74540.38;;;-145.10;41.30